Cedar City, Missouri
Current Conditions -  °F | °C
As of 3:53 AM on Friday 31 Oct 2014 (Local Time) from KJEF Reporting Station
Overcast Overcast  
Wind Chill: 45°   Ceiling: 6500
Heat Index: 48°   Visibility: 10mi
Dew Point: 43°   Wind: 6mph
Humidity: 83%   Direction: 310°NW
Pressure: 30.16"   Gusts: NA
Location:  38.6°N, 92.18°W
Report Text: KJEF 310853Z AUTO 31005KT 10SM BKN065 OVC085 09/06 A3016 RMK AO2 SLP205 T00890061 51022
Loading
Personal Weather Stations






























Interactive Weather Map
Tropical Storm Tracking
New forecast layout! Learn more

10-Day Weather Forecast

Advertisements
Track Severe Weather on mobile